Time;durP1;ratioP1;P1;durP2;ratioP2;P2;SDS_P1;SDS_P2;PMS_P1;PMS_P2;Temp;Humidity;BMP_temperature;BMP_pressure;BME280_temperature;BME280_humidity;BME280_pressure;Samples;Min_cycle;Max_cycle;Signal;HPM_P1;HPM_P2
2022/10/09 00:01:59;;;;;;;;;;;;;;;20.45;50.45;102101.44;7283115;19;152801;-59
2022/10/09 00:04:26;;;;;;;;;;;;;;;20.44;50.32;102099.78;7280074;19;154444;-59
2022/10/09 00:06:52;;;;;;;;;;;;;;;20.42;50.38;102100.03;7282746;19;152747;-59
2022/10/09 00:09:19;;;;;;;;;;;;;;;20.41;50.64;102095.53;7278747;19;153250;-59
2022/10/09 00:11:46;;;;;;;;;;;;;;;20.66;50.97;102097.53;7280380;19;153519;-57
2022/10/09 00:14:12;;;;;;;;;;;;;;;20.75;51.43;102098.63;7287426;19;151958;-59
2022/10/09 00:16:39;;;;;;;;;;;;;;;20.80;51.73;102093.00;7282170;19;153886;-59
2022/10/09 00:19:06;;;;;;;;;;;;;;;20.84;52.00;102082.91;7282182;19;152207;-59
2022/10/09 00:21:33;;;;;;;;;;;;;;;20.85;51.63;102078.09;7281824;19;152809;-59
2022/10/09 00:24:01;;;;;;;;;;;;;;;20.87;51.51;102092.72;7280240;19;153974;-59
2022/10/09 00:26:28;;;;;;;;;;;;;;;20.87;51.21;102081.47;7279312;19;152362;-59
2022/10/09 00:28:54;;;;;;;;;;;;;;;20.87;51.28;102075.84;7281758;19;155271;-58
2022/10/09 00:31:21;;;;;;;;;;;;;;;20.84;51.71;102077.28;7280853;19;154292;-59
2022/10/09 00:33:48;;;;;;;;;;;;;;;20.83;51.32;102072.78;7283193;19;152523;-58
2022/10/09 00:36:19;;;;;;;;;;;;;;;20.82;51.65;102082.31;7288669;19;153108;-58
2022/10/09 00:38:46;;;;;;;;;;;;;;;20.80;51.87;102083.75;7283487;19;152735;-59
2022/10/09 00:41:14;;;;;;;;;;;;;;;20.79;51.80;102079.25;7280204;19;153263;-58
2022/10/09 00:43:41;;;;;;;;;;;;;;;20.76;51.68;102080.63;7281304;19;154346;-58
2022/10/09 00:46:17;;;;;;;;;;;;;;;20.73;51.71;102075.59;7279615;19;152248;-58
2022/10/09 00:48:45;;;;;;;;;;;;;;;20.72;52.03;102078.69;7282384;19;153389;-58
2022/10/09 00:51:12;;;;;;;;;;;;;;;20.71;52.15;102077.03;7276955;19;154092;-58
2022/10/09 00:53:39;;;;;;;;;;;;;;;20.68;52.07;102086.84;7276841;19;153125;-58
2022/10/09 00:56:05;;;;;;;;;;;;;;;20.66;52.30;102089.09;7282061;19;154099;-58
2022/10/09 00:58:32;;;;;;;;;;;;;;;20.66;52.31;102080.66;7281734;19;151967;-58
2022/10/09 01:00:58;;;;;;;;;;;;;;;20.63;52.02;102083.19;7279510;19;152761;-58
2022/10/09 01:03:25;;;;;;;;;;;;;;;20.60;52.18;102073.38;7280013;19;153451;-59
2022/10/09 01:06:08;;;;;;;;;;;;;;;20.59;52.58;102071.66;7279111;19;152180;-58
2022/10/09 01:08:54;;;;;;;;;;;;;;;20.58;52.67;102071.97;7281098;19;153500;-59
2022/10/09 01:11:29;;;;;;;;;;;;;;;20.56;52.43;102063.81;7278476;19;153947;-58
2022/10/09 01:14:14;;;;;;;;;;;;;;;20.54;52.35;102063.25;7279990;19;154353;-59
2022/10/09 01:16:46;;;;;;;;;;;;;;;20.54;52.60;102065.22;7278310;19;153593;-58
2022/10/09 01:19:15;;;;;;;;;;;;;;;20.53;52.64;102061.59;7286384;19;153075;-59
2022/10/09 01:21:57;;;;;;;;;;;;;;;20.51;52.94;102055.41;7279801;19;153696;-59
2022/10/09 01:24:37;;;;;;;;;;;;;;;20.51;52.91;102049.78;7278567;19;153414;-58
2022/10/09 01:27:08;;;;;;;;;;;;;;;20.49;52.82;102054.81;7287104;19;154018;-58
2022/10/09 01:29:37;;;;;;;;;;;;;;;20.48;53.03;102043.91;7284387;19;154112;-59
2022/10/09 01:32:04;;;;;;;;;;;;;;;20.48;52.77;102052.31;7283224;19;154583;-59
2022/10/09 01:34:31;;;;;;;;;;;;;;;20.47;52.92;102059.03;7286268;19;152208;-58
2022/10/09 01:36:59;;;;;;;;;;;;;;;20.45;53.02;102055.66;7287611;19;153512;-58
2022/10/09 01:39:26;;;;;;;;;;;;;;;20.43;53.11;102050.34;7281600;19;153862;-58
2022/10/09 01:41:53;;;;;;;;;;;;;;;20.43;53.16;102050.34;7292739;19;152189;-58
2022/10/09 01:44:22;;;;;;;;;;;;;;;20.41;53.38;102047.81;7272538;19;153376;-58
2022/10/09 01:46:48;;;;;;;;;;;;;;;20.41;52.96;102052.59;7286303;19;154233;-58
2022/10/09 01:49:34;;;;;;;;;;;;;;;20.40;53.15;102043.31;7285257;19;152933;-58
2022/10/09 01:52:13;;;;;;;;;;;;;;;20.40;53.49;102037.69;7285506;19;153240;-58
2022/10/09 01:54:54;;;;;;;;;;;;;;;20.38;53.46;102036.31;7282887;19;154869;-58
2022/10/09 01:57:26;;;;;;;;;;;;;;;20.38;53.06;102033.50;7282179;19;154263;-59
2022/10/09 01:59:54;;;;;;;;;;;;;;;20.37;53.56;102023.41;7285036;19;153898;-56
2022/10/09 02:02:21;;;;;;;;;;;;;;;20.35;53.38;102020.03;7286298;19;152585;-57
2022/10/09 02:04:48;;;;;;;;;;;;;;;20.35;53.55;102018.06;7290414;19;154030;-58
2022/10/09 02:07:16;;;;;;;;;;;;;;;20.34;53.29;102004.31;7285310;19;152208;-57
2022/10/09 02:09:44;;;;;;;;;;;;;;;20.34;53.76;102007.13;7283611;19;153450;-57
2022/10/09 02:12:11;;;;;;;;;;;;;;;20.32;53.46;102004.59;7283703;19;154727;-58
2022/10/09 02:14:38;;;;;;;;;;;;;;;20.31;53.39;102000.09;7284137;19;152429;-59
2022/10/09 02:17:07;;;;;;;;;;;;;;;20.32;53.66;101995.31;7286235;19;153877;-57
2022/10/09 02:19:38;;;;;;;;;;;;;;;20.31;53.89;101988.88;7282746;19;154897;-57
2022/10/09 02:22:11;;;;;;;;;;;;;;;20.31;53.54;101991.69;7283843;19;152194;-58
2022/10/09 02:24:38;;;;;;;;;;;;;;;20.30;53.57;101987.22;7284159;19;152094;-58
2022/10/09 02:27:06;;;;;;;;;;;;;;;20.31;53.59;101982.41;7290903;19;154130;-58
2022/10/09 02:29:33;;;;;;;;;;;;;;;20.30;53.75;101975.97;7283667;19;153272;-58
2022/10/09 02:32:00;;;;;;;;;;;;;;;20.29;53.98;101976.22;7284062;19;152845;-57
2022/10/09 02:34:28;;;;;;;;;;;;;;;20.30;53.71;101969.53;7281840;19;152034;-57
2022/10/09 02:36:54;;;;;;;;;;;;;;;20.30;53.88;101975.13;7283696;19;152290;-57
2022/10/09 02:39:25;;;;;;;;;;;;;;;20.29;53.65;101976.22;7284413;19;153397;-58
2022/10/09 02:41:51;;;;;;;;;;;;;;;20.28;54.06;101974.53;7283016;19;151901;-58
2022/10/09 02:44:18;;;;;;;;;;;;;;;20.28;54.06;101966.13;7284706;19;152862;-57
2022/10/09 02:46:45;;;;;;;;;;;;;;;20.27;53.89;101961.63;7283335;19;154106;-57
2022/10/09 02:49:11;;;;;;;;;;;;;;;20.27;53.80;101956.00;7291226;19;151959;-57
2022/10/09 02:51:38;;;;;;;;;;;;;;;20.25;53.99;101950.69;7283081;19;154418;-57
2022/10/09 02:54:05;;;;;;;;;;;;;;;20.26;54.00;101957.16;7283950;19;152323;-58
2022/10/09 02:56:32;;;;;;;;;;;;;;;20.25;53.94;101949.84;7278508;19;151832;-58
2022/10/09 02:59:04;;;;;;;;;;;;;;;20.24;54.24;101942.53;7283027;19;155835;-58
2022/10/09 03:01:30;;;;;;;;;;;;;;;20.25;53.83;101941.44;7283110;19;153187;-57
2022/10/09 03:03:57;;;;;;;;;;;;;;;20.24;53.80;101940.59;7283438;19;153352;-57
2022/10/09 03:06:25;;;;;;;;;;;;;;;20.24;54.18;101936.94;7280987;19;153650;-57
2022/10/09 03:08:52;;;;;;;;;;;;;;;20.24;53.84;101945.34;7285395;19;152264;-56
2022/10/09 03:11:20;;;;;;;;;;;;;;;20.22;54.01;101939.16;7281276;19;153706;-57
2022/10/09 03:13:47;;;;;;;;;;;;;;;20.23;54.11;101940.84;7284195;19;151516;-57
2022/10/09 03:16:15;;;;;;;;;;;;;;;20.23;54.22;101935.25;7282624;19;153279;-57
2022/10/09 03:18:43;;;;;;;;;;;;;;;20.23;53.99;101936.09;7283198;19;153494;-57
2022/10/09 03:21:11;;;;;;;;;;;;;;;20.23;54.31;101936.09;7280326;19;153216;-58
2022/10/09 03:23:38;;;;;;;;;;;;;;;20.23;54.35;101927.66;7282918;19;153522;-57
2022/10/09 03:26:06;;;;;;;;;;;;;;;20.23;54.45;101927.66;7281262;19;154256;-57
2022/10/09 03:28:39;;;;;;;;;;;;;;;20.24;54.56;101923.75;7284429;19;153299;-57
2022/10/09 03:31:06;;;;;;;;;;;;;;;20.23;54.16;101921.22;7285999;19;153529;-57
2022/10/09 03:33:33;;;;;;;;;;;;;;;20.23;54.47;101918.41;7284765;19;152907;-57
2022/10/09 03:36:00;;;;;;;;;;;;;;;20.22;54.48;101920.38;7282571;19;152939;-57
2022/10/09 03:38:27;;;;;;;;;;;;;;;20.22;54.32;101923.16;7282376;19;155860;-57
2022/10/09 03:40:54;;;;;;;;;;;;;;;20.22;54.54;101917.56;7277703;19;152348;-57
2022/10/09 03:43:21;;;;;;;;;;;;;;;20.21;54.72;101910.28;7279616;19;153234;-57
2022/10/09 03:45:47;;;;;;;;;;;;;;;20.21;54.80;101912.25;7281642;19;153608;-57
2022/10/09 03:48:20;;;;;;;;;;;;;;;20.20;54.80;101908.59;7280969;19;152525;-57
2022/10/09 03:50:47;;;;;;;;;;;;;;;20.20;54.82;101911.41;7279339;19;154492;-57
2022/10/09 03:53:14;;;;;;;;;;;;;;;20.20;54.78;101903.00;7289617;19;152646;-57
2022/10/09 03:55:41;;;;;;;;;;;;;;;20.21;54.85;101901.03;7280268;19;152633;-56
2022/10/09 03:58:08;;;;;;;;;;;;;;;20.22;55.05;101902.69;7276581;19;153709;-56
2022/10/09 04:00:35;;;;;;;;;;;;;;;20.20;54.72;101894.56;7283256;19;152862;-57
2022/10/09 04:03:01;;;;;;;;;;;;;;;20.21;54.94;101896.25;7281423;19;152876;-57
2022/10/09 04:05:31;;;;;;;;;;;;;;;20.22;55.16;101897.06;7280735;19;154424;-57
2022/10/09 04:07:57;;;;;;;;;;;;;;;20.21;54.96;101887.00;7282408;19;152482;-57
2022/10/09 04:10:24;;;;;;;;;;;;;;;20.22;55.12;101883.03;7280351;19;153261;-57
2022/10/09 04:12:51;;;;;;;;;;;;;;;20.21;55.10;101895.41;7280643;19;154361;-57
2022/10/09 04:15:17;;;;;;;;;;;;;;;20.20;54.96;101879.69;7289952;19;152714;-57
2022/10/09 04:17:44;;;;;;;;;;;;;;;20.21;55.16;101878.59;7282075;19;153799;-57
2022/10/09 04:20:11;;;;;;;;;;;;;;;20.20;55.13;101876.88;7281677;19;152741;-57
2022/10/09 04:22:37;;;;;;;;;;;;;;;20.20;55.15;101874.09;7282442;19;153812;-57
2022/10/09 04:25:04;;;;;;;;;;;;;;;20.20;54.78;101876.88;7280371;19;154058;-58
2022/10/09 04:27:31;;;;;;;;;;;;;;;20.20;54.88;101874.09;7280803;19;151961;-58
2022/10/09 04:29:57;;;;;;;;;;;;;;;20.18;54.81;101871.56;7282040;19;153796;-58
2022/10/09 04:32:24;;;;;;;;;;;;;;;20.18;55.06;101871.56;7280812;19;153355;-56
2022/10/09 04:34:51;;;;;;;;;;;;;;;20.19;55.11;101873.25;7281421;19;152898;-56
2022/10/09 04:37:17;;;;;;;;;;;;;;;20.18;55.23;101868.75;7289267;19;152916;-57
2022/10/09 04:39:44;;;;;;;;;;;;;;;20.18;54.81;101865.94;7280918;19;151915;-56
2022/10/09 04:42:11;;;;;;;;;;;;;;;20.17;55.09;101869.88;7278581;19;152925;-57
2022/10/09 04:44:37;;;;;;;;;;;;;;;20.18;55.11;101860.31;7279948;19;153834;-57
2022/10/09 04:47:04;;;;;;;;;;;;;;;20.18;55.35;101859.47;7282018;19;153375;-57
2022/10/09 04:49:36;;;;;;;;;;;;;;;20.18;55.24;101856.69;7279808;19;153752;-57
2022/10/09 04:52:03;;;;;;;;;;;;;;;20.17;55.16;101858.63;7277711;19;153527;-58
2022/10/09 04:54:29;;;;;;;;;;;;;;;20.16;55.41;101856.13;7280277;19;151976;-58
2022/10/09 04:56:56;;;;;;;;;;;;;;;20.16;55.02;101850.53;7278993;19;153042;-58
2022/10/09 04:59:23;;;;;;;;;;;;;;;20.16;55.10;101851.38;7281714;19;152746;-57
2022/10/09 05:01:49;;;;;;;;;;;;;;;20.16;54.92;101844.91;7288120;19;153472;-57
2022/10/09 05:04:16;;;;;;;;;;;;;;;20.15;55.20;101841.25;7284536;19;153050;-57
2022/10/09 05:06:43;;;;;;;;;;;;;;;20.15;55.32;101838.47;7287022;19;152237;-57
2022/10/09 05:09:09;;;;;;;;;;;;;;;20.15;55.13;101843.22;7286609;19;153781;-58
2022/10/09 05:11:36;;;;;;;;;;;;;;;20.15;55.28;101843.22;7284776;19;154054;-57
2022/10/09 05:14:08;;;;;;;;;;;;;;;20.14;54.99;101844.34;7287092;19;153047;-57
2022/10/09 05:16:34;;;;;;;;;;;;;;;20.13;55.00;101845.47;7286792;19;153426;-56
2022/10/09 05:19:21;;;;;;;;;;;;;;;20.12;55.24;101839.03;7292933;19;156474;-57
2022/10/09 05:21:48;;;;;;;;;;;;;;;20.13;55.09;101839.84;7288323;19;153624;-57
2022/10/09 05:24:15;;;;;;;;;;;;;;;20.11;55.05;101837.34;7284592;19;154197;-57
2022/10/09 05:26:41;;;;;;;;;;;;;;;20.11;55.28;101834.53;7287202;19;153146;-57
2022/10/09 05:29:08;;;;;;;;;;;;;;;20.12;55.42;101835.38;7286524;19;152335;-56
2022/10/09 05:31:36;;;;;;;;;;;;;;;20.10;55.13;101834.81;7283113;19;153336;-57
2022/10/09 05:34:03;;;;;;;;;;;;;;;20.10;55.52;101832.00;7286628;19;152308;-57
2022/10/09 05:36:29;;;;;;;;;;;;;;;20.09;55.20;101825.56;7286926;19;153221;-57
2022/10/09 05:38:57;;;;;;;;;;;;;;;20.09;55.31;101828.38;7283401;19;154143;-57
2022/10/09 05:41:23;;;;;;;;;;;;;;;20.09;55.22;101830.31;7293697;19;152292;-59
2022/10/09 05:43:50;;;;;;;;;;;;;;;20.08;55.44;101828.66;7285708;19;153375;-57
2022/10/09 05:46:23;;;;;;;;;;;;;;;20.07;55.23;101825.03;7285293;19;152142;-57
2022/10/09 05:48:52;;;;;;;;;;;;;;;20.06;55.60;101831.75;7284383;19;154130;-57
2022/10/09 05:51:23;;;;;;;;;;;;;;;20.08;55.74;101832.28;7281466;19;153866;-58
2022/10/09 05:53:50;;;;;;;;;;;;;;;20.08;55.23;101829.47;7286690;19;152074;-58
2022/10/09 05:56:18;;;;;;;;;;;;;;;20.07;55.36;101827.81;7284909;19;153540;-57
2022/10/09 05:58:52;;;;;;;;;;;;;;;20.06;55.63;101819.69;7280552;19;153740;-58
2022/10/09 06:01:20;;;;;;;;;;;;;;;20.06;55.59;101814.91;7282317;19;152940;-58
2022/10/09 06:03:48;;;;;;;;;;;;;;;20.04;55.50;101817.16;7293194;19;154365;-58
2022/10/09 06:06:14;;;;;;;;;;;;;;;20.05;55.59;101823.59;7282681;19;152181;-58
2022/10/09 06:08:41;;;;;;;;;;;;;;;20.04;55.74;101819.94;7286453;19;152851;-58
2022/10/09 06:11:09;;;;;;;;;;;;;;;20.04;55.80;101822.75;7280147;19;153944;-58
2022/10/09 06:13:35;;;;;;;;;;;;;;;20.03;55.62;101817.44;7286021;19;152105;-58
2022/10/09 06:16:02;;;;;;;;;;;;;;;20.04;55.44;101819.13;7284800;19;152634;-57
2022/10/09 06:18:29;;;;;;;;;;;;;;;20.03;55.41;101823.91;7285281;19;152078;-57
2022/10/09 06:20:56;;;;;;;;;;;;;;;20.02;55.51;101819.41;7284949;19;151991;-57
2022/10/09 06:23:23;;;;;;;;;;;;;;;20.02;55.40;101815.75;7287575;19;153112;-57
2022/10/09 06:25:54;;;;;;;;;;;;;;;20.01;55.68;101826.16;7290479;19;154176;-58
2022/10/09 06:28:33;;;;;;;;;;;;;;;20.01;55.37;101823.34;7287403;19;152871;-57
2022/10/09 06:31:00;;;;;;;;;;;;;;;20.01;55.58;101816.88;7279784;19;156289;-57
2022/10/09 06:33:34;;;;;;;;;;;;;;;20.02;55.82;101821.38;7287403;19;152237;-58
2022/10/09 06:36:02;;;;;;;;;;;;;;;20.00;55.82;101818.84;7283686;19;153776;-57
2022/10/09 06:38:36;;;;;;;;;;;;;;;19.99;55.38;101817.16;7283577;19;153268;-57
2022/10/09 06:41:03;;;;;;;;;;;;;;;19.99;55.73;101811.53;7283069;19;152614;-57
2022/10/09 06:43:30;;;;;;;;;;;;;;;19.99;55.85;101814.34;7285418;19;152642;-57
2022/10/09 06:46:00;;;;;;;;;;;;;;;19.98;55.60;101816.34;7270396;19;154152;-57
2022/10/09 06:48:29;;;;;;;;;;;;;;;19.97;55.77;101806.25;7292671;19;155512;-58
2022/10/09 06:50:59;;;;;;;;;;;;;;;19.97;55.52;101803.44;7282955;19;155629;-57
2022/10/09 06:53:26;;;;;;;;;;;;;;;19.97;55.92;101803.44;7286073;19;152833;-58
2022/10/09 06:55:54;;;;;;;;;;;;;;;19.96;55.79;101807.34;7280354;19;152622;-57
2022/10/09 06:58:27;;;;;;;;;;;;;;;19.95;55.77;101807.63;7282927;19;154103;-58
2022/10/09 07:01:06;;;;;;;;;;;;;;;19.95;55.56;101811.28;7279291;19;153007;-57
2022/10/09 07:03:34;;;;;;;;;;;;;;;19.94;55.81;101801.19;7285237;19;153730;-57
2022/10/09 07:06:08;;;;;;;;;;;;;;;19.93;55.64;101796.72;7281897;19;153890;-58
2022/10/09 07:08:35;;;;;;;;;;;;;;;19.95;55.69;101800.06;7293204;19;152138;-58
2022/10/09 07:11:12;;;;;;;;;;;;;;;19.96;55.77;101796.13;7279955;19;152838;-58
2022/10/09 07:13:40;;;;;;;;;;;;;;;19.95;56.01;101793.59;7284666;19;152321;-58
2022/10/09 07:16:08;;;;;;;;;;;;;;;19.95;56.00;101797.25;7282235;19;153393;-57
2022/10/09 07:18:35;;;;;;;;;;;;;;;19.95;56.12;101799.22;7284914;19;154325;-58
2022/10/09 07:21:02;;;;;;;;;;;;;;;19.96;56.04;101787.72;7282994;19;152931;-58
2022/10/09 07:23:29;;;;;;;;;;;;;;;19.95;55.75;101783.22;7284259;19;153121;-58
2022/10/09 07:25:58;;;;;;;;;;;;;;;19.94;56.03;101778.75;7281394;19;153586;-58
2022/10/09 07:28:28;;;;;;;;;;;;;;;19.95;56.19;101779.59;7284435;19;152071;-57
2022/10/09 07:30:55;;;;;;;;;;;;;;;19.94;55.89;101783.53;7289860;19;153813;-58
2022/10/09 07:33:22;;;;;;;;;;;;;;;19.93;55.76;101782.69;7284622;19;152030;-57
2022/10/09 07:35:52;;;;;;;;;;;;;;;19.94;55.90;101783.53;7282689;19;153505;-57
2022/10/09 07:38:24;;;;;;;;;;;;;;;19.94;55.86;101783.53;7283501;19;153443;-57
2022/10/09 07:40:51;;;;;;;;;;;;;;;19.94;55.88;101786.34;7282611;19;152130;-58
2022/10/09 07:43:20;;;;;;;;;;;;;;;19.93;55.72;101788.31;7280939;19;153167;-57
2022/10/09 07:45:47;;;;;;;;;;;;;;;19.94;55.89;101783.53;7280899;19;154071;-57
2022/10/09 07:48:21;;;;;;;;;;;;;;;19.94;55.65;101786.34;7281532;19;152416;-57
2022/10/09 07:50:48;;;;;;;;;;;;;;;19.94;55.98;101789.97;7282178;19;153563;-57
2022/10/09 07:53:15;;;;;;;;;;;;;;;19.93;55.64;101782.69;7286626;19;153767;-57
2022/10/09 07:55:45;;;;;;;;;;;;;;;19.94;55.90;101787.16;7281886;19;152784;-57
2022/10/09 07:58:17;;;;;;;;;;;;;;;19.94;55.85;101795.56;7282011;19;154173;-58
2022/10/09 08:00:44;;;;;;;;;;;;;;;19.94;55.69;101781.53;7278722;19;152285;-57
2022/10/09 08:03:10;;;;;;;;;;;;;;;19.94;55.98;101783.53;7279394;19;153683;-57
2022/10/09 08:05:37;;;;;;;;;;;;;;;19.93;55.96;101790.25;7279888;19;153945;-57
2022/10/09 08:08:04;;;;;;;;;;;;;;;19.92;55.64;101782.97;7283752;19;152395;-60
2022/10/09 08:10:31;;;;;;;;;;;;;;;19.92;56.02;101785.78;7281101;19;152191;-59
2022/10/09 08:12:57;;;;;;;;;;;;;;;19.92;55.88;101774.56;7278135;19;154514;-59
2022/10/09 08:15:24;;;;;;;;;;;;;;;19.91;56.02;101782.13;7290439;19;153078;-59
2022/10/09 08:17:52;;;;;;;;;;;;;;;19.92;55.74;101775.41;7282136;19;153957;-58
2022/10/09 08:20:19;;;;;;;;;;;;;;;19.92;56.14;101780.16;7279252;19;153063;-59
2022/10/09 08:22:46;;;;;;;;;;;;;;;19.91;56.14;101770.91;7281085;19;153807;-57
2022/10/09 08:25:13;;;;;;;;;;;;;;;19.92;56.14;101771.75;7280415;19;153386;-59
2022/10/09 08:27:39;;;;;;;;;;;;;;;19.91;55.97;101773.72;7281234;19;151897;-57
2022/10/09 08:30:06;;;;;;;;;;;;;;;19.94;56.19;101770.31;7281382;19;153232;-60
2022/10/09 08:32:33;;;;;;;;;;;;;;;19.94;56.27;101763.91;7279637;19;154275;-62
2022/10/09 08:34:59;;;;;;;;;;;;;;;19.93;56.38;101762.22;7276459;19;152503;-57
2022/10/09 08:37:26;;;;;;;;;;;;;;;19.93;56.35;101765.03;7288787;19;154572;-60
2022/10/09 08:39:53;;;;;;;;;;;;;;;19.94;56.28;101772.31;7281645;19;151992;-57
2022/10/09 08:42:31;;;;;;;;;;;;;;;19.94;55.85;101767.53;7278960;19;152662;-57
2022/10/09 08:44:58;;;;;;;;;;;;;;;19.95;55.80;101771.16;7281468;19;153840;-57
2022/10/09 08:47:34;;;;;;;;;;;;;;;19.92;55.66;101764.19;7279275;19;152314;-58
2022/10/09 08:50:13;;;;;;;;;;;;;;;19.90;55.54;101760.81;7280810;19;152765;-58
2022/10/09 08:52:46;;;;;;;;;;;;;;;19.91;55.68;101761.66;7279086;19;154271;-57
2022/10/09 08:55:25;;;;;;;;;;;;;;;19.90;55.34;101762.75;7279314;19;153106;-57
2022/10/09 08:57:53;;;;;;;;;;;;;;;19.89;55.54;101761.94;7277923;19;153331;-58
2022/10/09 09:00:21;;;;;;;;;;;;;;;19.91;55.14;101758.84;7286671;19;153804;-58
2022/10/09 09:02:48;;;;;;;;;;;;;;;19.92;55.03;101752.97;7276487;19;154120;-58
2022/10/09 09:05:26;;;;;;;;;;;;;;;19.97;54.92;101752.94;7279625;19;154100;-58
2022/10/09 09:08:01;;;;;;;;;;;;;;;20.02;54.79;101745.63;7280243;19;152470;-59
2022/10/09 09:10:40;;;;;;;;;;;;;;;20.07;54.64;101742.81;7280231;19;153312;-58
2022/10/09 09:13:18;;;;;;;;;;;;;;;20.13;54.68;101742.50;7278084;19;153721;-58
2022/10/09 09:15:54;;;;;;;;;;;;;;;20.17;54.61;101742.78;7277398;19;153025;-58
2022/10/09 09:18:39;;;;;;;;;;;;;;;20.19;55.04;101737.72;7277623;19;153892;-58
2022/10/09 09:21:11;;;;;;;;;;;;;;;20.23;55.07;101733.19;7284381;19;155818;-58
2022/10/09 09:23:41;;;;;;;;;;;;;;;20.26;55.09;101727.84;7281094;19;153158;-58
2022/10/09 09:26:18;;;;;;;;;;;;;;;20.33;54.70;101727.59;7276990;19;154094;-58
2022/10/09 09:28:47;;;;;;;;;;;;;;;20.39;54.97;101721.66;7280437;19;152159;-58
2022/10/09 09:31:17;;;;;;;;;;;;;;;20.44;54.81;101715.19;7278398;19;154053;-58
2022/10/09 09:34:02;;;;;;;;;;;;;;;20.50;54.79;101716.81;7275501;19;155785;-58
2022/10/09 09:36:34;;;;;;;;;;;;;;;20.55;54.59;101719.59;7280220;19;152040;-58
2022/10/09 09:39:01;;;;;;;;;;;;;;;20.60;54.43;101711.16;7280845;19;152850;-58
2022/10/09 09:41:47;;;;;;;;;;;;;;;20.67;54.20;101711.66;7278200;19;153913;-58
2022/10/09 09:44:16;;;;;;;;;;;;;;;20.71;54.38;101704.34;7284765;19;152493;-58
2022/10/09 09:46:45;;;;;;;;;;;;;;;20.77;53.65;101708.78;7282099;19;154108;-58
2022/10/09 09:49:19;;;;;;;;;;;;;;;20.82;54.22;101702.28;7286470;19;152459;-58
2022/10/09 09:51:47;;;;;;;;;;;;;;;20.76;51.36;101695.84;7286306;19;153856;-58
2022/10/09 09:54:32;;;;;;;;;;;;;;;20.67;50.21;101692.00;7282097;19;154687;-58
2022/10/09 09:57:00;;;;;;;;;;;;;;;20.77;50.43;101685.47;7286148;19;152715;-58
2022/10/09 09:59:47;;;;;;;;;;;;;;;20.75;49.95;101694.22;7284768;19;152833;-58
2022/10/09 10:02:17;;;;;;;;;;;;;;;20.74;49.11;101683.25;7282405;19;153814;-58
2022/10/09 10:05:07;;;;;;;;;;;;;;;20.75;49.30;101685.78;7280910;19;151723;-59
2022/10/09 10:07:37;;;;;;;;;;;;;;;20.73;47.89;101690.00;7288804;19;153188;-58
2022/10/09 10:10:06;;;;;;;;;;;;;;;20.58;47.10;101670.47;7280988;19;154638;-58
2022/10/09 10:12:32;;;;;;;;;;;;;;;20.64;47.65;101663.66;7280925;19;152375;-58
2022/10/09 10:14:59;;;;;;;;;;;;;;;20.73;47.83;101665.56;7284429;19;153625;-58
2022/10/09 10:17:30;;;;;;;;;;;;;;;20.80;48.36;101665.25;7284895;19;152548;-58
2022/10/09 10:19:56;;;;;;;;;;;;;;;20.83;48.45;101656.22;7283898;19;153551;-58
2022/10/09 10:22:24;;;;;;;;;;;;;;;20.87;49.04;101651.69;7280115;19;154150;-58
2022/10/09 10:24:53;;;;;;;;;;;;;;;20.90;49.27;101650.25;7282770;19;154635;-57
2022/10/09 10:27:26;;;;;;;;;;;;;;;20.89;48.92;101641.00;7283374;19;153992;-57
2022/10/09 10:30:01;;;;;;;;;;;;;;;20.91;49.32;101644.34;7289072;19;154297;-58
2022/10/09 10:32:31;;;;;;;;;;;;;;;20.97;49.13;101636.72;7283840;19;153333;-58
2022/10/09 10:35:09;;;;;;;;;;;;;;;21.00;49.62;101636.97;7281105;19;154626;-59
2022/10/09 10:37:42;;;;;;;;;;;;;;;21.01;49.97;101629.38;7285559;19;152621;-58
2022/10/09 10:40:15;;;;;;;;;;;;;;;21.02;49.69;101631.06;7283092;19;152956;-58
2022/10/09 10:42:45;;;;;;;;;;;;;;;21.05;49.78;101622.03;7280347;19;154516;-57
2022/10/09 10:45:14;;;;;;;;;;;;;;;21.13;50.60;101613.81;7283517;19;152334;-58
2022/10/09 10:47:44;;;;;;;;;;;;;;;21.17;50.43;101609.28;7273852;19;154022;-59
2022/10/09 10:50:17;;;;;;;;;;;;;;;21.22;50.57;101611.19;7271161;19;154189;-57
2022/10/09 10:52:55;;;;;;;;;;;;;;;21.23;50.35;101610.06;7275145;19;155756;-58
2022/10/09 10:55:24;;;;;;;;;;;;;;;21.24;49.95;101595.75;7278659;19;152808;-59
2022/10/09 10:58:19;;;;;;;;;;;;;;;21.24;49.94;101597.72;7278437;19;152497;-58
2022/10/09 11:01:04;;;;;;;;;;;;;;;21.24;49.53;101587.31;7277533;19;153314;-59
2022/10/09 11:03:37;;;;;;;;;;;;;;;21.26;49.43;101581.38;7272452;19;153904;-60
2022/10/09 11:06:19;;;;;;;;;;;;;;;21.27;49.35;101578.25;7276476;19;153457;-59
2022/10/09 11:09:01;;;;;;;;;;;;;;;21.29;49.57;101575.16;7278628;19;153766;-58
2022/10/09 11:11:36;;;;;;;;;;;;;;;21.28;49.47;101567.88;7276537;19;153976;-58
2022/10/09 11:14:11;;;;;;;;;;;;;;;21.30;49.71;101574.03;7277356;19;153454;-59
2022/10/09 11:16:46;;;;;;;;;;;;;;;21.32;49.06;101559.66;7290724;19;152240;-58
2022/10/09 11:19:13;;;;;;;;;;;;;;;21.32;48.87;101554.88;7282888;19;152092;-59
2022/10/09 11:21:39;;;;;;;;;;;;;;;21.34;49.28;101552.63;7281385;19;153445;-58
2022/10/09 11:24:22;;;;;;;;;;;;;;;21.37;49.12;101548.38;7282878;19;153932;-58
2022/10/09 11:26:49;;;;;;;;;;;;;;;21.40;49.01;101537.34;7283377;19;151865;-58
2022/10/09 11:29:17;;;;;;;;;;;;;;;21.41;49.17;101538.19;7281626;19;153726;-59
2022/10/09 11:31:52;;;;;;;;;;;;;;;21.42;49.14;101531.44;7282493;19;153265;-58
2022/10/09 11:34:27;;;;;;;;;;;;;;;21.43;48.77;101519.91;7281100;19;152610;-58
2022/10/09 11:36:55;;;;;;;;;;;;;;;21.43;49.24;101530.31;7290540;19;152645;-59
2022/10/09 11:39:22;;;;;;;;;;;;;;;21.44;48.76;101532.78;7282900;19;152571;-58
2022/10/09 11:41:51;;;;;;;;;;;;;;;21.45;48.79;101528.00;7282493;19;153478;-59
2022/10/09 11:44:24;;;;;;;;;;;;;;;21.46;49.32;101518.44;7281297;19;154450;-58
2022/10/09 11:46:57;;;;;;;;;;;;;;;21.47;48.16;101514.50;7284068;19;153004;-58
2022/10/09 11:49:55;;;;;;;;;;;;;;;21.49;48.76;101510.25;7279772;19;153024;-58
2022/10/09 11:52:35;;;;;;;;;;;;;;;21.48;48.93;101511.41;7282231;19;154194;-59
2022/10/09 11:55:21;;;;;;;;;;;;;;;21.49;48.93;101503.78;7282214;19;152400;-58
2022/10/09 11:57:48;;;;;;;;;;;;;;;21.47;48.62;101495.66;7280392;19;152510;-58
2022/10/09 12:00:26;;;;;;;;;;;;;;;21.46;48.85;101496.81;7289125;19;153782;-59
2022/10/09 12:02:58;;;;;;;;;;;;;;;21.46;48.97;101484.72;7283673;19;152970;-58
2022/10/09 12:05:40;;;;;;;;;;;;;;;21.46;48.62;101485.56;7280020;19;155390;-60
2022/10/09 12:08:11;;;;;;;;;;;;;;;21.48;49.03;101491.72;7282092;19;153000;-58
2022/10/09 12:10:49;;;;;;;;;;;;;;;21.47;48.80;101483.59;7277813;19;154351;-58
2022/10/09 12:13:27;;;;;;;;;;;;;;;21.48;48.54;101480.47;7280644;19;154408;-58
2022/10/09 12:15:56;;;;;;;;;;;;;;;21.45;48.48;101475.44;7281512;19;151935;-59
2022/10/09 12:18:32;;;;;;;;;;;;;;;21.47;48.59;101473.19;7284177;19;153438;-58
2022/10/09 12:21:00;;;;;;;;;;;;;;;21.48;48.50;101465.59;7278403;19;153301;-58
2022/10/09 12:23:28;;;;;;;;;;;;;;;21.49;48.71;101458.78;7291279;19;153583;-58
2022/10/09 12:25:55;;;;;;;;;;;;;;;21.50;48.75;101461.31;7276173;19;153495;-58
2022/10/09 12:28:33;;;;;;;;;;;;;;;21.51;49.23;101456.53;7282249;19;153258;-58
2022/10/09 12:31:01;;;;;;;;;;;;;;;21.51;48.72;101451.75;7280423;19;153572;-58
2022/10/09 12:33:33;;;;;;;;;;;;;;;21.52;49.10;101447.81;7246839;19;156190;-58
2022/10/09 12:36:20;;;;;;;;;;;;;;;21.52;48.85;101438.53;7267459;19;156181;-58
2022/10/09 12:38:47;;;;;;;;;;;;;;;21.53;49.05;101432.56;7276730;19;154178;-58
2022/10/09 12:41:21;;;;;;;;;;;;;;;21.53;48.95;101417.72;7273673;19;154612;-58
2022/10/09 12:43:49;;;;;;;;;;;;;;;21.53;49.04;101417.72;7277553;19;152244;-58